SGEN

Encarnación Airport

Encarnación, Paraguay
TAF SGEN 162205Z 1700/1800 14005KT CAVOK TX32/1719Z TN21/1709Z BECMG 1706/1709 08005KT 9999 BKN027 TEMPO 1711/1713 17006KT 7000 TSRA BKN015 FEW040CB
Issued Valid From Valid To
Nov-16 @ 22:05 UTC
(11 hours ago)
Nov-17 @ 00:00 UTC
(9 hours ago)
Nov-18 @ 00:00 UTC
(in 15 hours)
Expired Click to View Nov-17 @ 00:00 to Nov-17 @ 06:00
TAF SGEN 162205Z 1700/1800 14005KT CAVOK TX32/1719Z TN21/1709Z
Wind Visibility Clouds
140° at 5 knots 10,000+ meters
  • No significant clouds
Becoming Nov-17 @ 06:00 to Nov-18 @ 00:00
BECMG 1706/1709 08005KT 9999 BKN027
Wind Visibility Clouds
80° at 5 knots 10,000+ meters
  • Broken at 2,700' AGL
Temporary Nov-17 @ 11:00 to Nov-17 @ 13:00
TEMPO 1711/1713 17006KT 7000 TSRA BKN015 FEW040CB
Wind Visibility Clouds Conditions
170° at 6 knots 7,001 meters
  • Broken at 1,500' AGL
  • Few at 4,000' AGL
  • Thunderstorm
  • Rain
TAF SGEN 162205Z 1700/1800 14005KT CAVOK TX32/1719Z TN21/1709Z BECMG 1706/1709 08005KT 9999 BKN027 TEMPO 1711/1713 17006KT 7000 TSRA BKN015 FEW040CB
Issued Nov-16 @ 22:05 UTC
(11 hours ago)
Valid From Nov-17 @ 00:00 UTC
(9 hours ago)
Valid To Nov-18 @ 00:00 UTC
(in 15 hours)
Nov-17 @ 00:00 - Nov-17 @ 06:00
Wind Visibility
140° at 5 knots 10,000+ meters
Clouds
  • No significant clouds
Becoming Nov-17 @ 06:00 - Nov-18 @ 00:00
Wind Visibility
80° at 5 knots 10,000+ meters
Clouds
  • Broken at 2,700' AGL
Temporary Nov-17 @ 11:00 - Nov-17 @ 13:00
Wind Visibility
170° at 6 knots 7,001 meters
Clouds
  • Broken at 1,500' AGL
  • Few at 4,000' AGL
Conditions
  • Thunderstorm
  • Rain